アスタナ の空港の天気 - METARとTAF

アスタナ国際空港 ( UACC / TSE ) - カザフスタン アスタナ
飛行場実況気象(Metar)
観測時間09/22 21:30 QYZT (09/22 16:30 UTC)
風向・風速南西 5m/s
視程10km以上
天気現象
少しの雲 雲底高度 490m
全天の8割程度の雲 雲底高度 910m
気温5℃
湿度93%
気圧1011hPa
METARUACC 221630Z 22005MPS 9999 FEW016 BKN030 05/04 Q1011 R22/2/0255 NOSIG RMK QFE727/0970
過去の天気等 Google飛行場航空写真 Wunderground天気予報

過去48時間のMETAR

飛行場予報(TAF)
発表時間: 9/22 16:00 QYZT (9/22 11:00 UTC)
予報対象時間: 22日17時 QYZT ~ 23日17時 QYZT
風向・風速西南西 9m/s
視程10km以上
全天の4割程度の積乱雲 雲底高度 460m
全天の8割程度の雲 雲底高度 1220m
22日17時 QYZT ~ 23日2時 QYZT に一時的に
視程3100m
天気現象弱いしゅう雨
全天の4割程度の雲 雲底高度 150m
全天の8割程度の積乱雲 雲底高度 460m
23日2時 QYZT ~ 23日9時 QYZT に一時的に
全天の4割程度の雲 雲底高度 120m
23日9時 QYZT ~ 23日11時 QYZT に徐々に
風向・風速西南西 10m/s 瞬間風速 15m/s
23日11時 QYZT ~ 23日13時 QYZT に徐々に
風向・風速西南西 15m/s 瞬間風速 20m/s
23日13時 QYZT ~ 23日17時 QYZT に一時的に
視程3000m
天気現象しゅう雨
全天の8割程度の雲 雲底高度 210m
全天の8割程度の積乱雲 雲底高度 460m
TAF UACC 221100Z 2212/2312 24009MPS 9999 SCT015CB BKN040 TX12/2309Z TN03/2300Z
TEMPO 2212/2221 3100 -SHRA SCT005 BKN015CB
TEMPO 2221/2304 SCT004
BECMG 2304/2306 24010G15MPS
BECMG 2306/2308 24015G20MPS
TEMPO 2308/2312 3000 SHRA BKN007 BKN015CB